Time;durP1;ratioP1;P1;durP2;ratioP2;P2;SDS_P1;SDS_P2;PMS_P1;PMS_P2;Temp;Humidity;BMP_temperature;BMP_pressure;BME280_temperature;BME280_humidity;BME280_pressure;Samples;Min_cycle;Max_cycle;Signal;HPM_P1;HPM_P2
2022/01/25 00:25:58;;;;;;;64.00;38.08;;;;;;;3.21;74.04;103592.38;5067299;28;20567;-58
2022/01/25 00:28:39;;;;;;;61.88;37.30;;;;;;;3.20;73.84;103596.72;5066374;28;20433;-59
2022/01/25 00:31:17;;;;;;;66.10;38.50;;;;;;;3.18;73.89;103592.22;5067038;28;20024;-57
2022/01/25 00:33:51;;;;;;;61.30;37.63;;;;;;;3.20;74.12;103601.91;5043250;28;20033;-59
2022/01/25 00:36:18;;;;;;;63.05;33.60;;;;;;;3.24;74.03;103598.59;5043849;28;20063;-59
2022/01/25 00:38:44;;;;;;;63.38;39.13;;;;;;;3.22;73.76;103600.25;5034226;28;20064;-59
2022/01/25 00:41:10;;;;;;;59.80;35.50;;;;;;;3.23;73.89;103603.75;5026586;28;20056;-59
2022/01/25 00:43:35;;;;;;;60.67;34.55;;;;;;;3.28;73.42;103600.50;5032387;28;20060;-57
2022/01/25 00:46:06;;;;;;;70.93;39.05;;;;;;;3.19;73.59;103597.50;5043308;28;20505;-57
2022/01/25 00:48:42;;;;;;;62.03;37.92;;;;;;;3.18;74.02;103598.34;5046869;28;20128;-58
2022/01/25 00:51:36;;;;;;;60.28;36.90;;;;;;;3.20;73.60;103596.72;5029110;28;20021;-59
2022/01/25 00:54:13;;;;;;;67.93;40.10;;;;;;;3.20;73.38;103593.19;5049147;28;20065;-57
2022/01/25 00:56:46;;;;;;;56.13;32.85;;;;;;;3.20;73.42;103588.91;5026630;28;20514;-58
2022/01/25 00:59:15;;;;;;;68.97;39.20;;;;;;;3.17;73.97;103583.56;5025385;28;20488;-58
2022/01/25 01:01:41;;;;;;;66.40;36.85;;;;;;;3.14;73.85;103592.13;5026479;28;20102;-58
2022/01/25 01:04:07;;;;;;;60.92;35.97;;;;;;;3.21;73.91;103585.44;5034610;28;20055;-60
2022/01/25 01:06:33;;;;;;;60.20;34.70;;;;;;;3.23;73.67;103573.38;5040296;28;20479;-58
2022/01/25 01:08:59;;;;;;;63.08;38.38;;;;;;;3.22;73.77;103568.97;5044907;28;20407;-59
2022/01/25 01:11:36;;;;;;;66.70;39.97;;;;;;;3.17;73.82;103570.53;5035904;28;20017;-59
2022/01/25 01:14:11;;;;;;;65.63;38.75;;;;;;;3.10;73.88;103573.69;5042596;28;20494;-58
2022/01/25 01:43:24;;;;;;;72.20;39.90;;;;;;;3.09;74.51;103574.50;5045831;28;20044;-58
2022/01/25 01:48:42;;;;;;;66.53;38.33;;;;;;;3.15;74.33;103580.88;5026026;28;20412;-58
2022/01/25 01:51:15;;;;;;;61.45;34.47;;;;;;;3.20;74.55;103570.66;5031279;28;20029;-57
2022/01/25 01:53:41;;;;;;;73.75;40.90;;;;;;;3.11;74.72;103572.88;5044552;28;20036;-59
2022/01/25 01:56:06;;;;;;;69.40;40.15;;;;;;;3.06;74.92;103575.28;5044968;28;20044;-59
2022/01/25 01:58:34;;;;;;;70.70;40.25;;;;;;;3.14;74.77;103578.22;5016307;28;20040;-58
2022/01/25 02:01:00;;;;;;;70.78;39.90;;;;;;;3.08;74.79;103570.13;5044781;28;20056;-57
2022/01/25 02:03:25;;;;;;;69.65;38.70;;;;;;;3.06;74.68;103572.66;5045231;28;20100;-58
2022/01/25 02:05:51;;;;;;;72.93;41.50;;;;;;;3.05;74.74;103559.59;5045118;28;20155;-57
2022/01/25 02:08:16;;;;;;;72.63;41.92;;;;;;;3.11;74.59;103565.06;5045271;28;20136;-59
2022/01/25 02:10:42;;;;;;;68.25;37.97;;;;;;;3.09;74.54;103561.47;5044486;28;20070;-56
2022/01/25 02:13:09;;;;;;;74.10;41.60;;;;;;;3.06;74.87;103563.94;5045540;28;20024;-58
2022/01/25 02:15:36;;;;;;;67.80;39.75;;;;;;;3.08;74.68;103560.63;5045826;28;20029;-57
2022/01/25 02:23:19;;;;;;;70.32;38.45;;;;;;;3.20;74.44;103564.53;5044664;28;20059;-61
2022/01/25 02:25:46;;;;;;;66.18;36.15;;;;;;;3.24;74.21;103551.69;5044559;28;20041;-56
2022/01/25 02:28:11;;;;;;;70.07;40.88;;;;;;;3.24;74.40;103548.19;5045733;28;20039;-59
2022/01/25 02:30:37;;;;;;;66.97;37.92;;;;;;;3.29;74.22;103544.06;5044880;28;20028;-59
2022/01/25 02:33:02;;;;;;;72.05;40.17;;;;;;;3.22;74.22;103548.13;5048856;28;20025;-57
2022/01/25 02:35:27;;;;;;;71.70;39.20;;;;;;;3.29;73.97;103551.91;5029846;28;20030;-58
2022/01/25 02:37:53;;;;;;;70.53;39.33;;;;;;;3.27;73.78;103544.00;5044769;28;20545;-58
2022/01/25 02:40:18;;;;;;;69.03;37.33;;;;;;;3.24;73.78;103549.09;5049752;28;20511;-57
2022/01/25 02:42:43;;;;;;;71.90;40.08;;;;;;;3.17;74.81;103541.84;5048266;28;20025;-58
2022/01/25 02:45:15;;;;;;;73.15;40.42;;;;;;;3.12;74.95;103540.75;5043271;28;20048;-58
2022/01/25 02:50:24;;;;;;;74.85;42.88;;;;;;;3.17;74.17;103547.06;5061411;28;20039;-59
2022/01/25 02:52:50;;;;;;;75.53;41.42;;;;;;;3.17;74.56;103557.50;5047547;28;20025;-59
2022/01/25 02:55:17;;;;;;;74.18;41.95;;;;;;;3.18;74.34;103551.44;5047067;28;20025;-59
2022/01/25 02:57:43;;;;;;;67.00;37.38;;;;;;;3.24;73.58;103554.31;5052166;28;20024;-58
2022/01/25 03:00:08;;;;;;;65.15;37.08;;;;;;;3.24;73.77;103556.91;5031667;28;20095;-58
2022/01/25 03:02:35;;;;;;;76.88;41.50;;;;;;;3.20;73.96;103554.13;5027572;28;20061;-57
2022/01/25 03:05:00;;;;;;;76.90;42.45;;;;;;;3.22;73.79;103558.56;5041584;28;20111;-58
2022/01/25 03:07:26;;;;;;;72.63;40.15;;;;;;;3.23;73.64;103555.16;5068495;28;20124;-58
2022/01/25 03:09:52;;;;;;;74.38;40.67;;;;;;;3.22;73.43;103555.09;5066995;28;20123;-60
2022/01/25 03:12:28;;;;;;;74.53;42.38;;;;;;;3.23;73.51;103564.66;5051064;28;20036;-57
2022/01/25 03:15:23;;;;;;;71.75;40.15;;;;;;;3.24;72.70;103562.13;5066629;28;20051;-59
2022/01/25 03:17:57;;;;;;;70.65;40.63;;;;;;;3.31;72.53;103565.00;5053347;28;20518;-59
2022/01/25 03:23:18;;;;;;;70.40;40.38;;;;;;;3.39;72.14;103555.75;5046681;28;20040;-58
2022/01/25 03:25:47;;;;;;;67.18;37.50;;;;;;;3.38;72.27;103554.88;5048204;28;20039;-56
2022/01/25 03:28:12;;;;;;;77.90;41.03;;;;;;;3.36;72.78;103556.53;5048093;28;20029;-58
2022/01/25 03:30:38;;;;;;;75.40;42.05;;;;;;;3.37;72.46;103553.06;5047339;28;20364;-58
2022/01/25 03:33:03;;;;;;;74.03;39.88;;;;;;;3.37;72.34;103547.88;5048473;28;20025;-58
2022/01/25 03:35:28;;;;;;;78.25;43.20;;;;;;;3.43;72.21;103555.03;5046015;28;20033;-59
2022/01/25 03:37:54;;;;;;;59.08;33.03;;;;;;;3.39;72.33;103550.53;5041503;28;20797;-59
2022/01/25 03:40:19;;;;;;;70.10;37.60;;;;;;;3.39;72.38;103551.44;5027711;28;20104;-57
2022/01/25 03:42:45;;;;;;;63.83;35.72;;;;;;;3.44;71.53;103543.81;5027833;28;20392;-60
2022/01/25 03:45:18;;;;;;;69.72;39.85;;;;;;;3.34;71.32;103547.75;5043104;28;20029;-57
2022/01/25 03:47:58;;;;;;;72.05;40.30;;;;;;;3.36;71.45;103545.19;5047640;28;20433;-58
2022/01/25 03:50:24;;;;;;;69.00;38.78;;;;;;;3.33;72.09;103550.28;5047409;28;20223;-57
2022/01/25 03:52:49;;;;;;;72.90;40.50;;;;;;;3.36;71.96;103545.19;5046642;28;20375;-57
2022/01/25 03:55:15;;;;;;;74.93;40.53;;;;;;;3.41;71.94;103541.94;5048047;28;20020;-56
2022/01/25 03:57:40;;;;;;;70.97;39.65;;;;;;;3.40;72.45;103536.66;5040029;28;20029;-59
2022/01/25 04:00:07;;;;;;;59.95;34.05;;;;;;;3.43;72.20;103547.22;5035232;28;20033;-60
2022/01/25 04:02:34;;;;;;;58.92;33.67;;;;;;;3.48;71.82;103543.09;5046444;28;20105;-59
2022/01/25 04:05:00;;;;;;;77.35;42.65;;;;;;;3.40;72.13;103549.69;5047665;28;20358;-58
2022/01/25 04:07:42;;;;;;;72.10;41.10;;;;;;;3.39;72.16;103543.63;5046283;28;20022;-56
2022/01/25 04:10:08;;;;;;;79.07;39.95;;;;;;;3.40;72.09;103536.66;5029697;28;20056;-58
2022/01/25 04:12:33;;;;;;;66.78;37.10;;;;;;;3.40;72.22;103536.66;5046971;28;20085;-58
2022/01/25 04:15:00;;;;;;;70.82;38.78;;;;;;;3.38;72.91;103527.91;5046752;28;20107;-59
2022/01/25 04:17:25;;;;;;;75.57;40.63;;;;;;;3.38;72.50;103535.72;5047358;28;20041;-57
2022/01/25 04:20:11;;;;;;;75.38;41.58;;;;;;;3.41;71.68;103530.66;5034674;28;20115;-58
2022/01/25 04:25:19;;;;;;;76.55;42.70;;;;;;;3.41;71.89;103531.50;5066922;28;20036;-59
2022/01/25 04:27:45;;;;;;;74.78;41.83;;;;;;;3.45;71.49;103527.31;5066694;28;20033;-58
2022/01/25 04:30:10;;;;;;;78.13;42.80;;;;;;;3.39;71.54;103529.69;5049748;28;20056;-58
2022/01/25 04:35:13;;;;;;;76.93;42.53;;;;;;;3.40;72.32;103534.97;5045534;28;20033;-59
2022/01/25 04:49:06;;;;;;;70.80;37.65;;;;;;;3.39;72.37;103519.25;5045436;28;20044;-60
2022/01/25 04:54:14;;;;;;;64.85;34.58;;;;;;;3.45;71.75;103516.88;5057017;28;19917;-59
2022/01/25 05:02:09;;;;;;;79.05;41.75;;;;;;;3.39;72.16;103511.44;5040130;28;20071;-59
2022/01/25 05:04:41;;;;;;;78.88;41.97;;;;;;;3.36;72.39;103507.00;5047047;28;20079;-59
2022/01/25 05:07:18;;;;;;;68.63;35.50;;;;;;;3.38;72.70;103507.06;5047574;28;20083;-59
2022/01/25 05:09:46;;;;;;;70.07;40.47;;;;;;;3.33;72.52;103512.09;5041083;28;20060;-58
2022/01/25 05:12:12;;;;;;;74.82;42.38;;;;;;;3.33;72.13;103508.56;5046152;28;20021;-59
2022/01/25 05:14:48;;;;;;;70.78;36.83;;;;;;;3.38;72.32;103512.28;5046361;28;20484;-58
2022/01/25 05:17:18;;;;;;;69.60;35.97;;;;;;;3.39;71.91;103511.44;5046047;28;20044;-58
2022/01/25 05:22:20;;;;;;;60.92;36.30;;;;;;;3.38;71.10;103504.44;5045352;28;20115;-57
2022/01/25 05:24:47;;;;;;;55.45;33.22;;;;;;;3.40;70.50;103497.56;5045816;28;20041;-57
2022/01/25 05:27:16;;;;;;;58.38;33.25;;;;;;;3.40;70.49;103497.56;5045653;28;20433;-60
2022/01/25 05:29:41;;;;;;;57.67;32.00;;;;;;;3.47;70.26;103502.22;5045787;28;20117;-60
2022/01/25 05:32:07;;;;;;;61.15;34.20;;;;;;;3.59;70.18;103490.47;5045587;28;20100;-60
2022/01/25 05:34:33;;;;;;;69.60;38.78;;;;;;;3.49;70.67;103495.31;5045273;28;20029;-59
2022/01/25 05:36:58;;;;;;;72.88;40.10;;;;;;;3.44;70.99;103494.28;5045581;28;20025;-61
2022/01/25 05:39:28;;;;;;;72.20;40.92;;;;;;;3.40;71.83;103503.69;5044914;28;20353;-59
2022/01/25 05:42:01;;;;;;;60.30;34.25;;;;;;;3.40;71.43;103505.38;5045263;28;20355;-58
2022/01/25 05:44:57;;;;;;;75.72;40.50;;;;;;;3.40;71.38;103514.09;5045955;28;20020;-57
2022/01/25 05:47:27;;;;;;;69.10;35.33;;;;;;;3.40;72.05;103508.88;5045724;28;20033;-58
2022/01/25 05:49:53;;;;;;;73.53;40.40;;;;;;;3.40;72.00;103508.88;5026879;28;20025;-59
2022/01/25 05:52:18;;;;;;;73.60;37.45;;;;;;;3.41;71.90;103515.00;5048099;28;20048;-61
2022/01/25 05:54:43;;;;;;;78.55;42.63;;;;;;;3.40;71.80;103511.50;5046216;28;20079;-57
2022/01/25 05:57:09;;;;;;;67.72;36.38;;;;;;;3.44;71.60;103516.84;5045501;28;20403;-58
2022/01/25 05:59:37;;;;;;;74.40;40.33;;;;;;;3.43;71.38;103517.66;5044177;28;20040;-58
2022/01/25 06:02:03;;;;;;;73.38;40.95;;;;;;;3.39;71.72;103519.25;5043487;28;20085;-57
2022/01/25 06:04:28;;;;;;;69.72;37.55;;;;;;;3.46;71.38;103518.66;5030813;28;20340;-57
2022/01/25 06:06:54;;;;;;;66.85;37.22;;;;;;;3.46;71.27;103523.88;5048704;28;20495;-59
2022/01/25 06:09:19;;;;;;;73.38;40.10;;;;;;;3.54;70.82;103524.19;5048057;28;20037;-58
2022/01/25 06:11:45;;;;;;;73.57;40.03;;;;;;;3.52;70.90;103521.50;5049262;28;20075;-58
2022/01/25 06:14:10;;;;;;;75.25;40.88;;;;;;;3.48;71.62;103517.00;5049123;28;20016;-59
2022/01/25 06:16:35;;;;;;;70.85;39.28;;;;;;;3.45;71.60;103519.50;5047422;28;20037;-58
2022/01/25 06:19:01;;;;;;;76.30;41.90;;;;;;;3.47;71.30;103515.25;5048301;28;20029;-58
2022/01/25 06:21:27;;;;;;;74.57;40.85;;;;;;;3.50;71.03;103512.75;5049406;28;20028;-59
2022/01/25 06:23:52;;;;;;;67.88;38.42;;;;;;;3.51;70.72;103519.75;5047417;28;20021;-59
2022/01/25 06:26:18;;;;;;;82.18;43.63;;;;;;;3.49;71.28;103520.53;5049346;28;20450;-58
2022/01/25 06:28:43;;;;;;;76.72;40.83;;;;;;;3.46;71.13;103521.28;5062247;28;20390;-58
2022/01/25 06:31:09;;;;;;;82.55;43.55;;;;;;;3.41;71.95;103520.22;5068599;28;20032;-59
2022/01/25 06:33:34;;;;;;;73.07;35.28;;;;;;;3.43;71.51;103518.53;5067589;28;20036;-57
2022/01/25 06:36:00;;;;;;;79.85;43.03;;;;;;;3.47;71.75;103522.16;5067988;28;20020;-60
2022/01/25 06:38:27;;;;;;;66.60;36.60;;;;;;;3.46;72.06;103528.22;5048772;28;20028;-58
2022/01/25 06:40:53;;;;;;;77.63;42.28;;;;;;;3.39;71.98;103524.47;5048043;28;20055;-59
2022/01/25 06:43:18;;;;;;;78.43;42.38;;;;;;;3.39;71.49;103525.38;5048104;28;20021;-59
2022/01/25 06:45:46;;;;;;;69.47;37.45;;;;;;;3.45;71.07;103529.94;5049682;28;20051;-58
2022/01/25 06:48:11;;;;;;;77.93;42.10;;;;;;;3.49;71.13;103530.94;5069018;28;20033;-59
2022/01/25 06:50:36;;;;;;;75.03;37.78;;;;;;;3.47;71.34;103527.38;5067964;28;20025;-59
2022/01/25 06:53:02;;;;;;;77.70;41.95;;;;;;;3.44;71.35;103522.94;5067601;28;20031;-58
2022/01/25 06:55:27;;;;;;;75.97;41.88;;;;;;;3.45;71.71;103526.41;5067223;28;20060;-59
2022/01/25 06:57:53;;;;;;;81.82;43.63;;;;;;;3.43;71.18;103530.69;5068115;28;20017;-58
2022/01/25 07:00:21;;;;;;;74.85;40.55;;;;;;;3.45;71.35;103535.13;5067564;28;20028;-59
2022/01/25 07:02:46;;;;;;;79.25;42.22;;;;;;;3.50;71.42;103532.72;5063504;28;20043;-60
2022/01/25 07:05:12;;;;;;;70.75;37.20;;;;;;;3.49;71.70;103530.94;5040260;28;20017;-60
2022/01/25 07:07:38;;;;;;;69.68;38.05;;;;;;;3.51;71.61;103532.78;5026622;28;20048;-58
2022/01/25 07:10:05;;;;;;;74.05;39.45;;;;;;;3.50;71.59;103533.63;5036535;28;20041;-58
2022/01/25 07:12:30;;;;;;;77.55;41.47;;;;;;;3.38;71.27;103541.84;5046865;28;20305;-58
2022/01/25 07:14:55;;;;;;;78.53;42.08;;;;;;;3.43;71.78;103538.53;5046173;28;20021;-60
2022/01/25 07:17:22;;;;;;;76.28;41.00;;;;;;;3.47;70.64;103543.94;5046376;28;20500;-59
2022/01/25 07:19:48;;;;;;;64.07;35.50;;;;;;;3.50;70.79;103535.31;5047301;28;20475;-57
2022/01/25 07:22:13;;;;;;;68.00;35.38;;;;;;;3.56;70.49;103539.88;5040535;28;20377;-56
2022/01/25 07:24:39;;;;;;;68.53;34.03;;;;;;;3.54;70.40;103545.94;5037790;28;20027;-59
2022/01/25 07:27:05;;;;;;;76.68;41.58;;;;;;;3.57;69.97;103544.25;5036665;28;20049;-58
2022/01/25 07:29:30;;;;;;;70.93;37.80;;;;;;;3.58;69.82;103541.72;5028896;28;20010;-58
2022/01/25 07:31:55;;;;;;;71.47;38.40;;;;;;;3.62;69.82;103548.84;5047414;28;20021;-55
2022/01/25 07:34:22;;;;;;;75.68;39.40;;;;;;;3.64;69.88;103549.78;5046961;28;20518;-58
2022/01/25 07:36:47;;;;;;;77.90;42.70;;;;;;;3.53;70.51;103551.97;5046036;28;20047;-57
2022/01/25 07:39:12;;;;;;;80.30;42.80;;;;;;;3.60;70.25;103549.59;5046869;28;20562;-56
2022/01/25 07:41:38;;;;;;;81.28;42.65;;;;;;;3.50;71.18;103556.19;5046795;28;20047;-60
2022/01/25 07:44:04;;;;;;;76.30;41.20;;;;;;;3.48;70.94;103553.50;5047255;28;20967;-56
2022/01/25 07:46:30;;;;;;;80.38;42.22;;;;;;;3.53;70.55;103554.56;5039059;28;20039;-59
2022/01/25 07:48:56;;;;;;;82.35;44.17;;;;;;;3.49;70.61;103552.69;5045219;28;20036;-58
2022/01/25 07:51:22;;;;;;;76.13;40.88;;;;;;;3.49;71.29;103542.25;5046430;28;20375;-59
2022/01/25 07:53:48;;;;;;;74.13;36.40;;;;;;;3.54;70.95;103543.34;5038526;28;20044;-56
2022/01/25 07:56:13;;;;;;;78.05;38.95;;;;;;;3.56;70.80;103543.41;5037516;28;20076;-54
2022/01/25 07:58:38;;;;;;;78.85;41.67;;;;;;;3.59;70.33;103538.31;5037016;28;20041;-58
2022/01/25 08:01:04;;;;;;;79.13;40.25;;;;;;;3.50;70.56;103537.94;5037220;28;20104;-56
2022/01/25 08:03:30;;;;;;;82.07;41.88;;;;;;;3.45;70.85;103540.34;5035338;28;20026;-55
2022/01/25 08:05:55;;;;;;;78.82;42.03;;;;;;;3.45;71.05;103536.84;5040735;28;20019;-55
2022/01/25 08:08:21;;;;;;;83.63;44.70;;;;;;;3.48;71.18;103535.25;5045239;28;20384;-57
2022/01/25 08:10:46;;;;;;;84.63;44.65;;;;;;;3.46;70.81;103539.50;5046952;28;20033;-58
2022/01/25 08:13:11;;;;;;;74.55;38.13;;;;;;;3.45;71.03;103537.75;5046330;28;20519;-58
2022/01/25 08:15:37;;;;;;;84.32;44.42;;;;;;;3.47;71.03;103536.09;5046786;28;20079;-58
2022/01/25 08:18:02;;;;;;;77.82;41.95;;;;;;;3.52;70.63;103544.06;5045969;28;20024;-54
2022/01/25 08:20:27;;;;;;;74.35;40.28;;;;;;;3.50;70.93;103541.44;5046891;28;20112;-55
2022/01/25 08:22:53;;;;;;;75.93;39.60;;;;;;;3.54;70.62;103540.72;5045209;28;20061;-56
2022/01/25 08:25:19;;;;;;;79.78;40.95;;;;;;;3.59;70.16;103542.63;5046487;28;20049;-57
2022/01/25 08:27:45;;;;;;;68.88;36.88;;;;;;;3.62;70.24;103537.53;5045063;28;20541;-56
2022/01/25 08:30:11;;;;;;;87.82;44.70;;;;;;;3.55;70.21;103539.00;5046626;28;20375;-56
2022/01/25 08:32:36;;;;;;;70.88;37.85;;;;;;;3.64;69.94;103535.84;5046427;28;20455;-56
2022/01/25 08:35:02;;;;;;;81.53;42.63;;;;;;;3.63;70.24;103540.19;5045593;28;20071;-55
2022/01/25 08:37:27;;;;;;;79.57;40.60;;;;;;;3.61;70.37;103528.81;5042425;28;20053;-56
2022/01/25 08:39:52;;;;;;;79.45;42.10;;;;;;;3.51;70.95;103527.56;5033752;28;20017;-54
2022/01/25 08:42:20;;;;;;;78.07;41.53;;;;;;;3.54;70.76;103529.41;5036242;28;20485;-55
2022/01/25 08:44:46;;;;;;;79.47;39.33;;;;;;;3.67;70.17;103528.16;5038186;28;20029;-54
2022/01/25 08:47:11;;;;;;;63.70;33.88;;;;;;;3.73;69.79;103524.91;5042956;28;20044;-56
2022/01/25 08:49:38;;;;;;;84.30;44.20;;;;;;;3.71;70.38;103531.78;5039905;28;20021;-56
2022/01/25 08:52:04;;;;;;;81.05;42.80;;;;;;;3.69;70.70;103533.41;5034439;28;20037;-56
2022/01/25 08:54:30;;;;;;;72.68;39.20;;;;;;;3.71;71.13;103534.38;5024499;28;20024;-58
2022/01/25 08:56:55;;;;;;;84.32;43.75;;;;;;;3.64;70.35;103534.13;5035236;28;20029;-57
2022/01/25 08:59:21;;;;;;;91.85;44.55;;;;;;;3.65;70.36;103542.88;5036235;28;20057;-56
2022/01/25 09:01:46;;;;;;;85.90;44.67;;;;;;;3.65;70.42;103545.47;5039186;28;20026;-58
2022/01/25 09:04:12;;;;;;;79.78;42.28;;;;;;;3.62;69.98;103546.25;5036828;28;20021;-56
2022/01/25 09:06:37;;;;;;;87.28;43.75;;;;;;;3.66;69.80;103545.53;5038020;28;20021;-55
2022/01/25 09:09:04;;;;;;;92.85;44.92;;;;;;;3.70;69.76;103543.91;5037608;28;20041;-57
2022/01/25 09:11:30;;;;;;;90.15;44.90;;;;;;;3.71;70.24;103540.50;5034561;28;20028;-55
2022/01/25 09:13:56;;;;;;;81.75;43.97;;;;;;;3.69;70.88;103547.38;5045679;28;20330;-56
2022/01/25 09:16:22;;;;;;;81.28;40.80;;;;;;;3.72;70.40;103550.09;5045528;28;20023;-56
2022/01/25 09:18:47;;;;;;;86.57;43.63;;;;;;;3.76;71.21;103546.75;5028446;28;20032;-53
2022/01/25 09:21:12;;;;;;;83.93;42.58;;;;;;;3.67;71.39;103547.31;5031271;28;20036;-53
2022/01/25 09:23:38;;;;;;;74.43;38.63;;;;;;;3.84;70.68;103548.78;5043823;28;20028;-56
2022/01/25 09:26:04;;;;;;;82.95;41.20;;;;;;;3.79;70.34;103551.19;5044803;28;20025;-54
2022/01/25 09:28:29;;;;;;;79.90;41.25;;;;;;;3.77;71.03;103555.50;5044859;28;20025;-56
2022/01/25 09:30:55;;;;;;;84.72;42.33;;;;;;;3.64;70.48;103551.50;5044938;28;20535;-55
2022/01/25 09:33:22;;;;;;;86.07;43.13;;;;;;;3.60;70.42;103557.44;5042037;28;20009;-57
2022/01/25 09:35:48;;;;;;;87.28;43.78;;;;;;;3.65;69.90;103559.38;5043342;28;20029;-57
2022/01/25 09:38:13;;;;;;;76.32;37.00;;;;;;;3.82;69.63;103566.09;5043704;28;20031;-54
2022/01/25 09:40:39;;;;;;;75.47;38.33;;;;;;;3.89;68.97;103573.31;5041156;28;20468;-57
2022/01/25 09:43:06;;;;;;;79.30;41.42;;;;;;;3.84;69.26;103569.63;5044822;28;20085;-56
2022/01/25 09:45:32;;;;;;;82.38;40.10;;;;;;;3.88;69.45;103574.13;5041392;28;20092;-56
2022/01/25 09:47:57;;;;;;;86.75;44.47;;;;;;;3.79;70.00;103575.56;5022367;28;20032;-56
2022/01/25 09:50:23;;;;;;;81.55;41.85;;;;;;;3.82;69.41;103571.31;5042813;28;20492;-57
2022/01/25 09:52:49;;;;;;;77.20;41.70;;;;;;;3.84;70.08;103578.38;5035903;28;20495;-56
2022/01/25 09:55:18;;;;;;;80.63;41.35;;;;;;;3.92;70.16;103578.66;5044653;28;20025;-59
2022/01/25 09:57:43;;;;;;;84.60;43.28;;;;;;;3.96;70.36;103585.78;5041805;28;20478;-56
2022/01/25 10:00:12;;;;;;;81.30;42.35;;;;;;;3.98;70.01;103583.22;5036039;28;20033;-58
2022/01/25 10:02:43;;;;;;;84.28;42.55;;;;;;;4.00;70.15;103592.00;5015774;28;20055;-56
2022/01/25 10:05:33;;;;;;;80.07;40.95;;;;;;;3.86;70.25;103588.84;5038225;28;20040;-57
2022/01/25 10:08:16;;;;;;;82.32;41.88;;;;;;;3.90;69.95;103585.53;5034662;28;20029;-55
2022/01/25 10:10:44;;;;;;;76.18;40.83;;;;;;;3.90;69.50;103594.25;5026955;28;20556;-55
2022/01/25 10:13:21;;;;;;;82.55;43.28;;;;;;;3.92;69.62;103589.09;5015125;28;20086;-58
2022/01/25 10:16:09;;;;;;;80.75;42.90;;;;;;;3.97;70.45;103597.09;5016972;28;20079;-56
2022/01/25 10:18:51;;;;;;;87.45;43.08;;;;;;;4.07;70.97;103596.63;5019131;28;20098;-56
2022/01/25 10:21:37;;;;;;;85.72;44.03;;;;;;;4.12;69.81;103592.47;5019806;28;20036;-60
2022/01/25 10:24:08;;;;;;;84.68;43.17;;;;;;;4.08;69.01;103594.88;5007986;28;20036;-56
2022/01/25 10:26:54;;;;;;;83.57;44.08;;;;;;;4.02;69.67;103598.16;5016975;28;20037;-55
2022/01/25 10:29:24;;;;;;;86.65;45.60;;;;;;;3.99;69.51;103605.88;5018369;28;20496;-56
2022/01/25 10:31:57;;;;;;;81.28;42.28;;;;;;;4.09;70.13;103601.91;5019596;28;20123;-55
2022/01/25 10:34:25;;;;;;;81.65;43.05;;;;;;;4.06;69.51;103612.22;5019978;28;20033;-55
2022/01/25 10:36:50;;;;;;;82.43;41.60;;;;;;;4.01;68.96;103605.09;5019709;28;20029;-57
2022/01/25 10:39:33;;;;;;;88.32;44.63;;;;;;;3.91;69.33;103609.06;5017325;28;20033;-56
2022/01/25 10:42:15;;;;;;;80.85;41.78;;;;;;;3.91;69.50;103609.06;5011278;28;20427;-58
2022/01/25 10:44:48;;;;;;;86.95;43.17;;;;;;;3.94;69.65;103612.66;5008466;28;20068;-53
2022/01/25 10:47:14;;;;;;;87.10;43.45;;;;;;;4.02;68.66;103606.00;5021852;28;20021;-56
2022/01/25 10:49:44;;;;;;;79.28;43.10;;;;;;;4.02;68.71;103606.88;5020988;28;20040;-56
2022/01/25 10:52:10;;;;;;;83.30;44.20;;;;;;;4.07;69.53;103608.78;5024145;28;20029;-56
2022/01/25 10:54:40;;;;;;;78.30;41.85;;;;;;;4.08;69.23;103607.94;5017030;28;20028;-56
2022/01/25 10:57:16;;;;;;;79.45;42.33;;;;;;;4.10;69.48;103608.91;5007113;28;20482;-55
2022/01/25 10:59:42;;;;;;;84.88;44.15;;;;;;;4.11;69.25;103602.84;5012379;28;20056;-56
2022/01/25 11:02:07;;;;;;;86.32;43.25;;;;;;;4.15;69.17;103602.13;5022722;28;20060;-56
2022/01/25 11:04:36;;;;;;;83.28;43.83;;;;;;;4.11;69.27;103595.00;5022640;28;20028;-57
2022/01/25 11:07:10;;;;;;;82.43;43.00;;;;;;;4.17;69.00;103610.91;4998935;28;20044;-58
2022/01/25 11:09:41;;;;;;;90.57;44.92;;;;;;;4.12;69.46;103607.25;5015273;28;20125;-53
2022/01/25 11:12:10;;;;;;;78.90;41.92;;;;;;;4.10;69.50;103604.56;5014659;28;20309;-55
2022/01/25 11:14:53;;;;;;;86.43;44.20;;;;;;;4.07;69.95;103600.94;5022618;28;20021;-55
2022/01/25 11:17:29;;;;;;;83.80;43.35;;;;;;;4.00;69.52;103607.66;5021562;28;20113;-55
2022/01/25 11:19:56;;;;;;;87.38;44.45;;;;;;;4.08;69.56;103602.72;5022951;28;20564;-56
2022/01/25 11:22:22;;;;;;;86.43;43.75;;;;;;;4.11;69.80;103600.22;5023199;28;20327;-58
2022/01/25 11:24:52;;;;;;;87.22;44.88;;;;;;;4.11;70.15;103600.22;5019127;28;20033;-61
2022/01/25 11:27:19;;;;;;;81.38;41.90;;;;;;;4.25;69.35;103593.78;5023659;28;20437;-61
2022/01/25 11:29:45;;;;;;;79.63;39.50;;;;;;;4.34;68.98;103589.75;5012986;28;20275;-59
2022/01/25 11:32:13;;;;;;;78.75;41.25;;;;;;;4.26;69.43;103594.69;5018953;28;20018;-58
2022/01/25 11:34:39;;;;;;;85.20;45.92;;;;;;;4.19;69.38;103592.69;5003783;28;20396;-57
2022/01/25 11:37:07;;;;;;;82.60;41.45;;;;;;;4.23;69.16;103594.56;5002187;28;20033;-57
2022/01/25 11:39:34;;;;;;;87.82;45.42;;;;;;;4.13;69.08;103582.91;5023983;28;20073;-62
2022/01/25 11:42:05;;;;;;;86.22;44.80;;;;;;;4.02;68.84;103579.91;5018751;28;20394;-59
2022/01/25 11:44:31;;;;;;;82.72;43.38;;;;;;;3.98;69.17;103578.00;5022512;28;20029;-59
2022/01/25 11:47:07;;;;;;;90.45;44.30;;;;;;;4.01;69.22;103588.56;5017700;28;20029;-60
2022/01/25 11:49:33;;;;;;;82.20;43.33;;;;;;;4.10;69.55;103577.59;5022552;28;20487;-59
2022/01/25 11:52:16;;;;;;;90.38;43.72;;;;;;;4.16;69.65;103572.59;5020762;28;20121;-60
2022/01/25 11:54:42;;;;;;;84.55;44.03;;;;;;;4.09;69.18;103576.69;5018282;28;20464;-61
2022/01/25 11:57:26;;;;;;;91.07;44.55;;;;;;;4.13;68.63;103577.69;5018688;28;20099;-60
2022/01/25 11:59:54;;;;;;;85.25;44.15;;;;;;;4.16;68.72;103577.81;5013213;28;20057;-59
2022/01/25 12:02:42;;;;;;;93.85;45.55;;;;;;;4.20;68.76;103573.56;5020935;28;20112;-60
2022/01/25 12:05:28;;;;;;;90.35;44.05;;;;;;;4.12;68.40;103562.88;5022191;28;20120;-60
2022/01/25 12:08:06;;;;;;;88.03;44.58;;;;;;;4.25;68.29;103559.84;5020445;28;20037;-58
2022/01/25 12:10:36;;;;;;;88.55;44.92;;;;;;;4.36;67.84;103567.22;5020090;28;20033;-61
2022/01/25 12:13:25;;;;;;;85.68;45.15;;;;;;;4.29;68.67;103558.25;5018215;28;20532;-57
2022/01/25 12:16:09;;;;;;;;;;;;;;;4.37;68.91;103561.16;5027868;28;20061;-57
2022/01/25 12:19:00;;;;;;;82.45;42.45;;;;;;;4.23;69.04;103558.03;5046033;28;19917;-59
2022/01/25 12:21:45;;;;;;;85.93;43.72;;;;;;;4.18;69.52;103550.03;5044599;28;20040;-59
2022/01/25 12:24:18;;;;;;;88.72;43.17;;;;;;;4.12;69.56;103547.22;5046429;28;20125;-61
2022/01/25 12:29:46;;;;;;;89.45;44.35;;;;;;;4.18;69.24;103550.03;5031846;28;20535;-59
2022/01/25 12:32:18;;;;;;;83.80;43.40;;;;;;;4.16;69.24;103546.50;5034047;28;20025;-54
2022/01/25 12:35:03;;;;;;;85.65;43.63;;;;;;;4.25;69.44;103545.94;5034485;28;20034;-61
2022/01/25 12:37:44;;;;;;;86.03;45.05;;;;;;;4.18;69.77;103544.81;5037584;28;20033;-56
2022/01/25 12:40:24;;;;;;;87.07;43.40;;;;;;;4.08;69.81;103543.59;5038520;28;20029;-55
2022/01/25 12:42:54;;;;;;;91.82;45.60;;;;;;;4.06;69.85;103534.81;5032470;28;20035;-59
2022/01/25 12:45:19;;;;;;;;;;;;;;;4.03;69.96;103529.47;5036694;28;20032;-58
2022/01/25 12:47:56;;;;;;;92.55;44.65;;;;;;;4.18;69.55;103526.53;5040166;28;19913;-60
2022/01/25 12:50:21;;;;;;;91.15;44.30;;;;;;;4.06;69.89;103520.91;5028980;28;20374;-60
2022/01/25 12:52:47;;;;;;;88.80;44.58;;;;;;;4.00;70.28;103526.78;5017109;28;20017;-58
2022/01/25 12:55:13;;;;;;;89.30;45.38;;;;;;;4.01;69.60;103511.16;5022715;28;20518;-58
2022/01/25 12:57:46;;;;;;;91.22;45.97;;;;;;;3.97;69.73;103509.28;5004065;28;20044;-60
2022/01/25 13:00:13;;;;;;;90.55;45.67;;;;;;;3.99;70.01;103514.53;5021657;28;20083;-60